METAR Data
IDs: Format: Raw Decoded Include TAF

Data at: 0425 UTC 26 Sep 2018

KAAT 260355Z AUTO 00000KT 10SM CLR 12/M07 A3018 RMK AO2 SLP206 T01221067
KAAT 260255Z AUTO 00000KT 10SM CLR 13/M09 A3017 RMK AO2 SLP211 T01331089 53005
KAAT 260155Z AUTO 03004KT 10SM CLR 21/M09 A3016 RMK AO2 SLP205 T02061094
KAAT 260055Z AUTO 34006KT 10SM CLR 25/M11 A3016 RMK AO2 SLP192 T02501111
KAAT 252355Z AUTO 32003KT 10SM CLR 26/M13 A3016 RMK AO2 SLP189 T02561128 10261 20156 56009
KAAT 252255Z AUTO VRB03KT 10SM CLR 24/M13 A3016 RMK AO2 SLP187 T02441128
KAAT 252155Z AUTO VRB03KT 10SM CLR 25/M15 A3017 RMK AO2 SLP191 T02501150
KAAT 252055Z AUTO VRB04KT 10SM CLR 23/M10 A3019 RMK AO2 SLP197 T02281100 58018
KAAT 251955Z AUTO 11004KT 10SM CLR 22/M10 A3021 RMK AO2 SLP203 T02171100
KAAT 251855Z AUTO 06004KT 10SM CLR 19/M08 A3023 RMK AO2 SLP214 T01891083
KAAT 251755Z AUTO 00000KT 10SM CLR 16/M05 A3025 RMK AO2 SLP218 6//// T01561050 10156 21039 58001
KAAT 251655Z AUTO 00000KT 10SM CLR 12/M03 A3025 RMK AO2 SLP225 T01171033
KAAT 251555Z AUTO 00000KT 10SM CLR 07/M03 A3026 RMK AO2 SLP230 T00721028
KAAT 251455Z AUTO 00000KT 10SM CLR 02/M04 A3025 RMK AO2 SLP235 T00171039 53010 $
KAAT 251355Z AUTO 20003KT 10SM CLR M04/M08 A3025 RMK AO2 SLP238 T10391078 $
KAAT 251255Z AUTO 00000KT 10SM CLR M01/M05 A3022 RMK AO2 SLP218 T10061050 $
KAAT 251155Z AUTO 00000KT 10SM CLR 01/M03 A3022 RMK AO2 SLP212 T00111028 10128 20006 53003 $
KAAT 251055Z AUTO 00000KT 10SM CLR 04/M02 A3021 RMK AO2 SLP205 T00391017 $
KAAT 250955Z AUTO VRB03KT 10SM CLR 04/M03 A3021 RMK AO2 SLP208 T00391028 $
KAAT 250855Z AUTO 12005KT 10SM CLR 06/M03 A3021 RMK AO2 SLP205 T00561033 53008 $
KAAT 250755Z AUTO 00000KT 10SM CLR 09/M06 A3020 RMK AO2 SLP200 T00891061 402441039 $
KAAT 250655Z AUTO 16004KT 10SM CLR 08/M06 A3019 RMK AO2 SLP200 T00831056
KAAT 250555Z AUTO 02007KT 10SM CLR 13/M08 A3018 RMK AO2 SLP196 T01281083 10239 20122 53020
KAAT 250455Z AUTO 02006KT 10SM CLR 13/M08 A3015 RMK AO2 SLP192 T01281083
KAAT 250355Z AUTO 01007KT 10SM CLR 14/M08 A3014 RMK AO2 SLP191 T01441083
KAAT 250255Z AUTO 01010KT 10SM CLR 16/M09 A3011 RMK AO2 SLP187 T01611089 53010
KAAT 250155Z AUTO 02009KT 10SM CLR 18/M08 A3009 RMK AO2 SLP183 T01831078
KAAT 250055Z AUTO 02008KT 10SM CLR 22/M08 A3009 RMK AO2 SLP173 T02221083
KAAT 242355Z AUTO 01007KT 10SM CLR 24/M09 A3008 RMK AO2 SLP168 T02391094 10244 20139 55006
KAAT 242255Z AUTO VRB03KT 10SM CLR 24/M12 A3008 RMK AO2 SLP162 T02441122
KAAT 242155Z AUTO VRB04KT 10SM CLR 23/M13 A3008 RMK AO2 SLP168 T02281128
KAAT 242055Z AUTO VRB03KT 10SM CLR 22/M11 A3010 RMK AO2 SLP173 T02171111 58012
KAAT 241955Z AUTO VRB03KT 10SM CLR 20/M09 A3012 RMK AO2 SLP182 T02001089
KAAT 241855Z AUTO 32003KT 10SM CLR 18/M06 A3013 RMK AO2 SLP185 T01781056
KAAT 241755Z AUTO 00000KT 10SM CLR 15/M06 A3014 RMK AO2 SLP189 T01501061 10150 21039 58001
KAAT 241655Z AUTO VRB03KT 10SM CLR 10/M05 A3014 RMK AO2 SLP195 T01001050